createdAt,value
2019-02-17T00:01:52.574Z,18.97
2019-02-17T00:06:48.799Z,23.73
2019-02-17T00:11:46.894Z,21.27
2019-02-17T00:16:42.887Z,23.70
2019-02-17T00:21:38.783Z,28.47
2019-02-17T00:26:35.603Z,24.97
2019-02-17T00:31:31.666Z,26.40
2019-02-17T00:36:30.683Z,23.50
2019-02-17T00:41:26.547Z,19.43
2019-02-17T00:46:22.413Z,21.67
2019-02-17T00:51:18.396Z,25.37
2019-02-17T00:56:14.256Z,18.37
2019-02-17T01:01:12.042Z,21.90
2019-02-17T01:06:08.475Z,18.00
2019-02-17T01:11:04.537Z,22.73
2019-02-17T01:16:00.516Z,18.93
2019-02-17T01:20:56.392Z,20.43
2019-02-17T01:25:52.411Z,22.03
2019-02-17T01:30:48.346Z,19.83
2019-02-17T01:35:44.246Z,20.83
2019-02-17T01:40:40.154Z,24.90
2019-02-17T01:45:36.136Z,24.40
2019-02-17T01:50:32.059Z,28.33
2019-02-17T01:55:28.529Z,28.13
2019-02-17T02:00:25.928Z,25.73
2019-02-17T02:05:21.931Z,27.83
2019-02-17T02:10:17.869Z,24.43
2019-02-17T02:15:14.103Z,25.27
2019-02-17T02:20:17.527Z,25.27
2019-02-17T02:25:13.880Z,31.47
2019-02-17T02:30:14.992Z,31.13
2019-02-17T02:35:10.919Z,31.57
2019-02-17T02:40:07.413Z,26.97
2019-02-17T02:45:03.368Z,26.27
2019-02-17T02:49:59.280Z,25.93
2019-02-17T02:54:55.677Z,26.20
2019-02-17T02:59:52.667Z,26.83
2019-02-17T03:04:48.779Z,31.37
2019-02-17T03:09:44.918Z,26.33
2019-02-17T03:14:40.793Z,26.03
2019-02-17T03:19:36.671Z,26.23
2019-02-17T03:24:32.844Z,28.60
2019-02-17T03:29:29.013Z,24.20
2019-02-17T03:34:24.890Z,26.80
2019-02-17T03:39:20.693Z,29.20
2019-02-17T03:44:16.756Z,24.47
2019-02-17T03:49:12.608Z,27.00
2019-02-17T03:54:08.528Z,24.10
2019-02-17T03:59:07.828Z,25.90
2019-02-17T04:04:06.292Z,26.17
2019-02-17T04:09:02.371Z,26.47
2019-02-17T04:13:58.782Z,25.67
2019-02-17T04:18:54.897Z,27.90
2019-02-17T04:23:50.911Z,23.57
2019-02-17T04:28:46.865Z,24.47
2019-02-17T04:33:44.960Z,24.43
2019-02-17T04:38:40.834Z,24.07
2019-02-17T04:43:36.746Z,23.50
2019-02-17T04:48:33.031Z,23.83
2019-02-17T04:53:32.026Z,22.30
2019-02-17T04:58:28.134Z,24.00
2019-02-17T05:03:24.243Z,23.50
2019-02-17T05:08:21.266Z,24.43
2019-02-17T05:13:20.425Z,24.27
2019-02-17T05:18:17.661Z,25.90
2019-02-17T05:23:13.647Z,28.93
2019-02-17T05:28:11.885Z,25.57
2019-02-17T05:33:07.828Z,22.90
2019-02-17T05:38:03.737Z,29.83
2019-02-17T05:42:59.661Z,34.23
2019-02-17T05:47:55.543Z,27.30
2019-02-17T05:52:51.411Z,46.57
2019-02-17T05:57:47.459Z,42.53
2019-02-17T06:03:04.658Z,36.03
2019-02-17T06:08:05.661Z,46.50
2019-02-17T06:13:01.529Z,38.13
2019-02-17T06:17:57.504Z,41.83
2019-02-17T06:23:22.814Z,43.73
2019-02-17T06:28:21.291Z,29.10
2019-02-17T06:33:17.231Z,35.83
2019-02-17T06:38:13.151Z,36.87
2019-02-17T06:43:09.375Z,62.13
2019-02-17T06:48:05.248Z,49.47
2019-02-17T06:53:01.139Z,27.43
2019-02-17T06:57:57.245Z,30.87
2019-02-17T07:02:53.244Z,31.93
2019-02-17T07:07:49.139Z,28.90
2019-02-17T07:12:45.026Z,47.13
2019-02-17T07:17:40.904Z,23.40
2019-02-17T07:22:36.810Z,24.57
2019-02-17T07:27:32.728Z,23.80
2019-02-17T07:32:28.749Z,29.40
2019-02-17T07:37:33.133Z,35.80
2019-02-17T07:42:22.550Z,28.90
2019-02-17T07:47:18.517Z,28.00
2019-02-17T07:52:14.505Z,33.80
2019-02-17T07:57:10.550Z,25.30
2019-02-17T08:02:06.976Z,22.57
2019-02-17T08:07:02.867Z,26.90
2019-02-17T08:12:29.146Z,29.57
2019-02-17T08:17:48.654Z,30.83
2019-02-17T08:23:14.561Z,26.03
2019-02-17T08:28:17.465Z,28.67
2019-02-17T08:33:13.213Z,28.63
2019-02-17T08:38:23.356Z,38.03
2019-02-17T08:43:19.344Z,26.70
2019-02-17T08:48:27.970Z,33.10
2019-02-17T08:53:23.948Z,28.43
2019-02-17T08:58:19.888Z,29.33
2019-02-17T09:03:16.033Z,28.47
2019-02-17T09:08:12.463Z,31.13
2019-02-17T09:13:08.503Z,29.63
2019-02-17T09:18:04.982Z,23.93
2019-02-17T09:23:02.847Z,29.60
2019-02-17T09:28:00.450Z,30.37
2019-02-17T09:32:56.521Z,31.90
2019-02-17T09:37:52.712Z,29.60
2019-02-17T09:42:48.645Z,32.77
2019-02-17T09:47:44.465Z,31.43
2019-02-17T09:52:40.696Z,35.03
2019-02-17T09:57:36.793Z,30.30
2019-02-17T10:02:32.913Z,30.43
2019-02-17T10:07:28.824Z,31.50
2019-02-17T10:12:24.920Z,32.33
2019-02-17T10:17:21.067Z,34.53
2019-02-17T10:22:18.537Z,38.33
2019-02-17T10:27:14.587Z,28.90
2019-02-17T10:32:10.468Z,42.87
2019-02-17T10:37:06.537Z,40.17
2019-02-17T10:42:02.465Z,39.33
2019-02-17T10:46:58.489Z,41.13
2019-02-17T10:51:54.640Z,34.00
2019-02-17T10:56:52.486Z,39.43
2019-02-17T11:01:48.001Z,33.17
2019-02-17T11:06:46.871Z,35.47
2019-02-17T11:11:42.952Z,34.93
2019-02-17T11:16:39.457Z,36.63
2019-02-17T11:21:35.648Z,37.07
2019-02-17T11:26:31.588Z,34.20
2019-02-17T11:31:27.670Z,30.80
2019-02-17T11:36:23.724Z,35.10
2019-02-17T11:41:19.518Z,31.47
2019-02-17T11:46:15.372Z,23.20
2019-02-17T11:51:11.540Z,25.87
2019-02-17T11:56:07.382Z,23.43
2019-02-17T12:01:05.298Z,20.93
2019-02-17T12:06:00.747Z,20.07
2019-02-17T12:11:02.932Z,18.07
2019-02-17T12:15:58.811Z,18.10
2019-02-17T12:21:10.482Z,16.73
2019-02-17T12:26:35.637Z,13.67
2019-02-17T12:31:35.711Z,12.80
2019-02-17T12:36:35.846Z,11.47
2019-02-17T12:41:33.220Z,11.73
2019-02-17T12:46:29.092Z,12.87
2019-02-17T12:51:25.277Z,14.23
2019-02-17T12:56:21.345Z,11.63
2019-02-17T13:01:17.489Z,11.20
2019-02-17T13:06:34.085Z,19.10
2019-02-17T13:11:35.678Z,13.20
2019-02-17T13:22:35.420Z,12.47
2019-02-17T13:33:25.983Z,12.73
2019-02-17T13:38:37.073Z,12.10
2019-02-17T13:49:34.028Z,15.47
2019-02-17T13:54:35.924Z,21.17
2019-02-17T14:04:48.074Z,20.07
2019-02-17T14:09:45.529Z,20.00
2019-02-17T14:14:41.520Z,20.17
2019-02-17T14:19:37.300Z,22.23
2019-02-17T14:24:33.137Z,22.63
2019-02-17T14:29:28.887Z,21.77
2019-02-17T14:34:26.290Z,20.80
2019-02-17T14:39:22.096Z,19.77
2019-02-17T14:44:17.922Z,22.07
2019-02-17T14:49:13.863Z,23.23
2019-02-17T14:54:13.628Z,21.07
2019-02-17T14:59:09.450Z,19.87
2019-02-17T15:04:08.776Z,22.20
2019-02-17T15:09:03.085Z,23.90
2019-02-17T15:13:58.868Z,22.87
2019-02-17T15:18:54.706Z,22.27
2019-02-17T15:23:52.225Z,20.83
2019-02-17T15:28:51.246Z,24.83
2019-02-17T15:33:45.880Z,28.73
2019-02-17T15:38:41.809Z,28.37
2019-02-17T15:43:37.681Z,26.53
2019-02-17T15:48:33.645Z,24.67
2019-02-17T15:53:31.074Z,22.30
2019-02-17T15:58:28.790Z,22.40
2019-02-17T16:03:26.267Z,19.40
2019-02-17T16:08:22.293Z,20.67
2019-02-17T16:13:18.234Z,23.73
2019-02-17T16:18:14.183Z,21.77
2019-02-17T16:23:10.029Z,20.77
2019-02-17T16:28:09.040Z,20.60
2019-02-17T16:33:05.083Z,25.57
2019-02-17T16:38:01.262Z,30.23
2019-02-17T16:42:57.325Z,26.63
2019-02-17T16:47:53.409Z,28.67
2019-02-17T16:53:02.979Z,27.47
2019-02-17T16:57:59.157Z,28.67
2019-02-17T17:02:55.235Z,34.17
2019-02-17T17:07:51.571Z,33.83
2019-02-17T17:12:47.449Z,32.63
2019-02-17T17:17:43.363Z,33.37
2019-02-17T17:22:39.545Z,33.67
2019-02-17T17:27:35.443Z,33.40
2019-02-17T17:32:36.861Z,33.57
2019-02-17T17:37:33.122Z,31.67
2019-02-17T17:42:29.243Z,33.53
2019-02-17T17:47:25.247Z,28.70
2019-02-17T17:52:28.098Z,31.87
2019-02-17T17:57:24.254Z,30.07
2019-02-17T18:02:20.245Z,31.70
2019-02-17T18:07:16.167Z,37.63
2019-02-17T18:12:12.335Z,32.43
2019-02-17T18:17:08.324Z,32.13
2019-02-17T18:22:04.540Z,33.07
2019-02-17T18:27:00.474Z,34.23
2019-02-17T18:31:57.008Z,94.60
2019-02-17T18:36:53.597Z,52.63
2019-02-17T18:41:53.698Z,37.87
2019-02-17T18:46:51.059Z,35.07
2019-02-17T18:51:47.075Z,46.63
2019-02-17T18:56:43.101Z,36.67
2019-02-17T19:01:39.080Z,39.90
2019-02-17T19:06:35.051Z,37.93
2019-02-17T19:11:31.156Z,35.07
2019-02-17T19:16:27.225Z,35.43
2019-02-17T19:21:27.271Z,36.73
2019-02-17T19:26:22.844Z,32.70
2019-02-17T19:31:18.845Z,35.17
2019-02-17T19:36:15.281Z,34.40
2019-02-17T19:41:11.468Z,28.87
2019-02-17T19:46:10.016Z,26.60
2019-02-17T19:51:06.169Z,22.73
2019-02-17T19:56:02.249Z,25.90
2019-02-17T20:00:58.260Z,21.03
2019-02-17T20:06:02.474Z,22.33
2019-02-17T20:10:58.588Z,18.27
2019-02-17T20:15:54.736Z,17.07
2019-02-17T20:20:50.932Z,24.00
2019-02-17T20:25:46.949Z,22.87
2019-02-17T20:30:43.126Z,21.00
2019-02-17T20:35:39.176Z,19.77
2019-02-17T20:40:35.549Z,17.80
2019-02-17T20:45:31.735Z,16.67
2019-02-17T20:50:27.794Z,21.60
2019-02-17T20:55:26.523Z,17.13
2019-02-17T21:00:24.747Z,14.37
2019-02-17T21:05:20.958Z,16.13
2019-02-17T21:10:17.287Z,17.37
2019-02-17T21:15:13.810Z,16.07
2019-02-17T21:20:10.122Z,13.93
2019-02-17T21:25:06.436Z,14.50
2019-02-17T21:30:02.382Z,17.53
2019-02-17T21:34:58.449Z,14.40
2019-02-17T21:39:54.366Z,16.93
2019-02-17T21:44:50.265Z,17.17
2019-02-17T21:49:46.336Z,19.47
2019-02-17T22:00:10.221Z,16.83
2019-02-17T22:05:06.420Z,17.63
2019-02-17T22:10:04.355Z,16.03
2019-02-17T22:15:34.146Z,18.93
2019-02-17T22:20:30.027Z,18.73
2019-02-17T22:25:26.034Z,18.33
2019-02-17T22:30:22.093Z,18.17
2019-02-17T22:35:18.043Z,18.47
2019-02-17T22:40:14.350Z,31.70
2019-02-17T22:45:10.754Z,32.93
2019-02-17T22:50:07.692Z,26.00
2019-02-17T22:55:03.740Z,21.27
2019-02-17T22:59:59.836Z,21.07
2019-02-17T23:04:55.778Z,21.70
2019-02-17T23:09:51.741Z,29.13
2019-02-17T23:14:47.654Z,44.17
2019-02-17T23:19:43.682Z,39.27
2019-02-17T23:24:42.500Z,44.53
2019-02-17T23:29:38.346Z,38.83
2019-02-17T23:34:36.986Z,35.60
2019-02-17T23:39:32.896Z,33.10
2019-02-17T23:44:28.882Z,46.03
2019-02-17T23:49:27.805Z,51.87
2019-02-17T23:54:23.763Z,45.27
2019-02-17T23:59:20.995Z,31.13
